Webcams

Webcam1&2        Webcam1 (Zeitraffer 2 Std.)        Webcam2 (Zeitraffer 2 Std.)

Webcam1 - Zeitraffer (die letzten zwei Stunden, Intervall: 10min)
cam1--20170622_134959M
cam1--20170622_135959M
cam1--20170622_140958M
cam1--20170622_141959M
cam1--20170622_142958M
cam1--20170622_143958M
cam1--20170622_144958M
cam1--20170622_145959M
cam1--20170622_150958M
cam1--20170622_151959M
cam1--20170622_152958M
cam1--20170622_153959M
cam1--20170622_154958M
01/13 
start stop bwd fwd

Webcam1 - Aktuell

Lokale Serverzeit 15:50 | 22.06.2017
Webcam-Lageplan

Flugwetter

[source: ADDS]
METAR
LOWL 221350Z 29009KT 250V350 9999 FEW070 SCT350 33/14 Q1014 NOSIG =
TAF
TAF COR LOWL 221115Z 2212/2312 VRB02KT 9999 FEW060 SCT250 TX34/2215Z TN20/2304Z TEMPO 2212/2217 28010KT PROB30 TEMPO 2301/2305 30015G30KT 7000 TSRA FEW045CB BKN060 BECMG 2307/2309 27012KT TEMPO 2309/2312 29020G35KT 7000 TSRA SCT040CB BKN050 =